Time;durP1;ratioP1;P1;durP2;ratioP2;P2;SDS_P1;SDS_P2;PMS_P1;PMS_P2;Temp;Humidity;BMP_temperature;BMP_pressure;BME280_temperature;BME280_humidity;BME280_pressure;Samples;Min_cycle;Max_cycle;Signal;HPM_P1;HPM_P2
2021/08/17 00:01:45;;;;;;;;;;;;;;;22.77;27.61;97737.31;5055083;28;1963;-84
2021/08/17 00:04:10;;;;;;;;;;;;;;;22.68;27.68;97734.38;5071947;28;927;-84
2021/08/17 00:06:36;;;;;;;;;;;;;;;22.62;27.82;97730.56;5071194;28;762;-83
2021/08/17 00:09:01;;;;;;;;;;;;;;;22.53;27.90;97733.28;5054264;28;846;-84
2021/08/17 00:11:27;;;;;;;;;;;;;;;22.59;27.70;97731.50;5055580;28;1402;-84
2021/08/17 00:13:52;;;;;;;;;;;;;;;22.70;27.73;97726.22;5088355;28;842;-85
2021/08/17 00:16:18;;;;;;;;;;;;;;;22.81;27.49;97725.84;5054914;28;1119;-84
2021/08/17 00:18:43;;;;;;;;;;;;;;;22.73;27.38;97733.81;5054767;28;1157;-85
2021/08/17 00:21:08;;;;;;;;;;;;;;;22.74;27.36;97726.06;5038017;28;1989;-85
2021/08/17 00:23:34;;;;;;;;;;;;;;;22.71;27.47;97727.81;5054752;28;1288;-84
2021/08/17 00:25:59;;;;;;;;;;;;;;;22.65;27.50;97729.66;5038524;28;1281;-85
2021/08/17 00:28:25;;;;;;;;;;;;;;;22.68;27.81;97734.38;5038168;28;1197;-85
2021/08/17 00:30:50;;;;;;;;;;;;;;;22.69;27.68;97730.31;5054255;28;1121;-85
2021/08/17 00:33:16;;;;;;;;;;;;;;;22.64;27.70;97722.41;5054343;28;857;-85
2021/08/17 00:35:41;;;;;;;;;;;;;;;22.77;27.50;97722.34;5054604;28;1110;-84
2021/08/17 00:38:06;;;;;;;;;;;;;;;22.67;27.51;97721.47;5071598;28;870;-85
2021/08/17 00:40:35;;;;;;;;;;;;;;;22.56;28.05;97721.06;5053497;28;1894;-85
2021/08/17 00:43:01;;;;;;;;;;;;;;;22.50;27.84;97711.53;5071416;28;874;-85
2021/08/17 00:45:27;;;;;;;;;;;;;;;22.59;27.63;97717.31;5054362;28;1259;-85
2021/08/17 00:47:53;;;;;;;;;;;;;;;22.74;27.72;97715.56;5054224;28;885;-85
2021/08/17 00:50:19;;;;;;;;;;;;;;;22.71;27.58;97710.78;5071514;28;807;-85
2021/08/17 00:52:44;;;;;;;;;;;;;;;22.52;27.77;97704.16;5071624;28;1123;-85
2021/08/17 00:55:10;;;;;;;;;;;;;;;22.45;28.06;97709.28;5054415;28;1215;-85
2021/08/17 00:57:36;;;;;;;;;;;;;;;22.56;27.93;97709.72;5054443;28;1159;-85
2021/08/17 01:00:04;;;;;;;;;;;;;;;22.73;27.66;97696.94;5054190;28;1930;-84
2021/08/17 01:02:29;;;;;;;;;;;;;;;22.75;27.26;97700.13;5071657;28;1145;-85
2021/08/17 01:04:55;;;;;;;;;;;;;;;22.72;27.58;97695.34;5038197;28;1145;-85
2021/08/17 01:07:20;;;;;;;;;;;;;;;22.65;27.60;97695.63;5037861;28;1242;-85
2021/08/17 01:09:46;;;;;;;;;;;;;;;22.57;27.74;97694.28;5054183;28;1110;-85
2021/08/17 01:12:11;;;;;;;;;;;;;;;22.62;27.76;97702.19;5038459;28;1259;-85
2021/08/17 01:14:36;;;;;;;;;;;;;;;22.72;27.66;97701.03;5054438;28;1156;-85
2021/08/17 01:17:02;;;;;;;;;;;;;;;22.84;27.42;97703.00;5037501;28;1180;-85
2021/08/17 01:19:28;;;;;;;;;;;;;;;22.74;27.73;97707.03;5054400;28;1874;-85
2021/08/17 01:21:53;;;;;;;;;;;;;;;22.67;27.86;97700.81;5037577;28;1261;-85
2021/08/17 01:24:19;;;;;;;;;;;;;;;22.55;27.80;97703.25;5053755;28;1161;-85
2021/08/17 01:26:44;;;;;;;;;;;;;;;22.57;27.79;97708.44;5053687;28;1207;-85
2021/08/17 01:29:10;;;;;;;;;;;;;;;22.59;27.75;97697.47;5037277;28;1201;-85
2021/08/17 01:31:36;;;;;;;;;;;;;;;22.55;27.82;97697.56;5054610;28;853;-85
2021/08/17 01:34:01;;;;;;;;;;;;;;;22.72;27.47;97691.72;5071251;28;904;-85
2021/08/17 01:36:26;;;;;;;;;;;;;;;22.77;27.59;97697.59;5053603;28;874;-85
2021/08/17 01:38:52;;;;;;;;;;;;;;;22.69;27.44;97690.63;5070621;28;1464;-85
2021/08/17 01:41:18;;;;;;;;;;;;;;;22.72;27.90;97689.69;5040224;28;1906;-85
2021/08/17 01:43:43;;;;;;;;;;;;;;;22.81;27.36;97692.59;5058590;28;1357;-85
2021/08/17 01:46:09;;;;;;;;;;;;;;;22.66;27.74;97685.84;5057630;28;1267;-85
2021/08/17 01:48:34;;;;;;;;;;;;;;;22.72;27.41;97700.22;5041901;28;1481;-85
2021/08/17 01:51:00;;;;;;;;;;;;;;;22.77;27.49;97686.25;5055457;28;1364;-84
2021/08/17 01:53:26;;;;;;;;;;;;;;;22.68;27.66;97693.88;5040520;28;1194;-84
2021/08/17 01:55:52;;;;;;;;;;;;;;;22.65;27.91;97695.63;5073362;28;964;-84
2021/08/17 01:58:17;;;;;;;;;;;;;;;22.39;28.15;97691.28;5041294;28;1483;-85
2021/08/17 02:00:46;;;;;;;;;;;;;;;22.55;27.85;97691.13;5040188;28;1883;-85
2021/08/17 02:03:11;;;;;;;;;;;;;;;22.58;27.85;97684.50;5040592;28;1172;-85
2021/08/17 02:05:37;;;;;;;;;;;;;;;22.62;27.94;97690.84;5040037;28;1295;-85
2021/08/17 02:08:03;;;;;;;;;;;;;;;22.74;27.31;97692.88;5073521;28;970;-85
2021/08/17 02:10:28;;;;;;;;;;;;;;;22.63;27.75;97678.25;5056081;28;1225;-85
2021/08/17 02:12:53;;;;;;;;;;;;;;;22.67;27.34;97681.75;5041184;28;1152;-85
2021/08/17 02:15:19;;;;;;;;;;;;;;;22.62;27.50;97682.34;5056305;28;1297;-85
2021/08/17 02:17:44;;;;;;;;;;;;;;;22.75;27.29;97680.25;5056280;28;866;-84
2021/08/17 02:20:10;;;;;;;;;;;;;;;22.68;27.54;97677.66;5072882;28;1965;-84
2021/08/17 02:22:35;;;;;;;;;;;;;;;22.75;27.33;97671.75;5056426;28;811;-83
2021/08/17 02:25:01;;;;;;;;;;;;;;;22.52;27.53;97672.97;5057218;28;1272;-85
2021/08/17 02:27:26;;;;;;;;;;;;;;;22.67;27.62;97669.63;5056355;28;944;-85
2021/08/17 02:29:52;;;;;;;;;;;;;;;22.68;27.54;97674.03;5056712;28;866;-85
2021/08/17 02:32:17;;;;;;;;;;;;;;;22.68;27.11;97669.16;5040922;28;1146;-84
2021/08/17 02:34:43;;;;;;;;;;;;;;;22.56;27.65;97675.69;5039494;28;938;-83
2021/08/17 02:37:08;;;;;;;;;;;;;;;22.60;27.40;97670.69;5073310;28;946;-85
2021/08/17 02:39:33;;;;;;;;;;;;;;;22.69;27.38;97656.59;5039486;28;1898;-85
2021/08/17 02:41:59;;;;;;;;;;;;;;;22.74;27.36;97670.16;5056096;28;1157;-85
2021/08/17 02:44:24;;;;;;;;;;;;;;;22.74;27.17;97664.50;5057699;28;1154;-85
2021/08/17 02:46:50;;;;;;;;;;;;;;;22.82;27.07;97670.69;5056814;28;1272;-85
2021/08/17 02:49:15;;;;;;;;;;;;;;;22.02;27.41;97558.53;5057741;28;1197;-85
2021/08/17 02:51:41;;;;;;;;;;;;;;;22.71;27.45;97673.91;5055602;28;1133;-84
2021/08/17 02:54:06;;;;;;;;;;;;;;;22.81;27.17;97669.91;5054652;28;1295;-83
2021/08/17 02:56:32;;;;;;;;;;;;;;;22.60;27.17;97670.69;5055428;28;968;-84
2021/08/17 02:58:57;;;;;;;;;;;;;;;22.52;27.41;97669.34;5057059;28;702;-85
2021/08/17 03:01:23;;;;;;;;;;;;;;;22.68;27.37;97672.00;5057005;28;1959;-85
2021/08/17 03:03:48;;;;;;;;;;;;;;;22.65;27.08;97667.25;5040124;28;1359;-85
2021/08/17 03:06:14;;;;;;;;;;;;;;;22.61;27.31;97675.09;5073129;28;1069;-86
2021/08/17 03:08:39;;;;;;;;;;;;;;;22.52;27.26;97675.00;5056913;28;933;-85
2021/08/17 03:11:05;;;;;;;;;;;;;;;22.77;27.23;97666.41;5055858;28;1123;-84
2021/08/17 03:13:31;;;;;;;;;;;;;;;22.64;27.06;97671.34;5055693;28;1226;-85
2021/08/17 03:15:57;;;;;;;;;;;;;;;22.52;27.30;97669.34;5056220;28;1182;-85
2021/08/17 03:18:22;;;;;;;;;;;;;;;22.61;27.46;97677.94;5056501;28;1167;-85
2021/08/17 03:20:47;;;;;;;;;;;;;;;22.64;27.21;97682.69;5072913;28;1993;-84
2021/08/17 03:23:14;;;;;;;;;;;;;;;22.54;27.39;97676.16;5057275;28;1135;-84
2021/08/17 03:25:40;;;;;;;;;;;;;;;22.57;27.30;97671.59;5057038;28;1259;-85
2021/08/17 03:28:06;;;;;;;;;;;;;;;22.58;27.17;97687.34;5073737;28;610;-85
2021/08/17 03:30:31;;;;;;;;;;;;;;;22.65;27.07;97683.47;5040400;28;1278;-85
2021/08/17 03:32:57;;;;;;;;;;;;;;;22.65;27.13;97678.59;5055957;28;1168;-85
2021/08/17 03:35:22;;;;;;;;;;;;;;;22.60;27.17;97682.03;5039396;28;1281;-85
2021/08/17 03:37:48;;;;;;;;;;;;;;;22.42;27.37;97684.69;5039061;28;1207;-84
2021/08/17 03:40:14;;;;;;;;;;;;;;;22.65;27.07;97684.28;5053630;28;1965;-85
2021/08/17 03:42:43;;;;;;;;;;;;;;;22.70;26.92;97686.53;5055705;28;710;-83
2021/08/17 03:45:10;;;;;;;;;;;;;;;22.60;27.22;97687.69;5070796;28;722;-85
2021/08/17 03:47:35;;;;;;;;;;;;;;;22.41;27.45;97688.78;5055689;28;1190;-85
2021/08/17 03:50:01;;;;;;;;;;;;;;;22.64;27.36;97694.03;5053791;28;1164;-85
2021/08/17 03:52:27;;;;;;;;;;;;;;;22.56;27.51;97696.31;5072802;28;1156;-85
2021/08/17 03:54:53;;;;;;;;;;;;;;;22.66;27.26;97690.72;5054961;28;1155;-84
2021/08/17 03:57:18;;;;;;;;;;;;;;;22.54;27.47;97696.00;5055336;28;911;-85
2021/08/17 03:59:44;;;;;;;;;;;;;;;22.54;27.49;97693.16;5054843;28;1898;-85
2021/08/17 04:02:10;;;;;;;;;;;;;;;22.58;27.41;97695.84;5055316;28;1166;-85
2021/08/17 04:04:36;;;;;;;;;;;;;;;22.49;27.44;97688.06;5070159;28;1131;-84
2021/08/17 04:07:01;;;;;;;;;;;;;;;22.68;27.19;97683.34;5054046;28;994;-84
2021/08/17 04:09:27;;;;;;;;;;;;;;;22.84;27.01;97676.69;5052341;28;976;-84
2021/08/17 04:11:52;;;;;;;;;;;;;;;22.60;27.34;97682.03;5070154;28;938;-83
2021/08/17 04:14:18;;;;;;;;;;;;;;;22.58;27.55;97678.84;5069923;28;726;-84
2021/08/17 04:16:43;;;;;;;;;;;;;;;22.38;27.83;97681.97;5054086;28;814;-84
2021/08/17 04:19:09;;;;;;;;;;;;;;;22.50;27.77;97677.53;5053280;28;855;-84
2021/08/17 04:21:34;;;;;;;;;;;;;;;22.42;27.94;97676.97;5053794;28;1898;-85
2021/08/17 04:24:00;;;;;;;;;;;;;;;22.48;27.78;97680.00;5055218;28;1349;-86
2021/08/17 04:26:25;;;;;;;;;;;;;;;22.48;27.39;97677.97;5055019;28;1298;-85
2021/08/17 04:28:51;;;;;;;;;;;;;;;22.60;27.22;97682.03;5072271;28;710;-85
2021/08/17 04:31:16;;;;;;;;;;;;;;;22.62;27.14;97679.50;5071442;28;663;-85
2021/08/17 04:33:42;;;;;;;;;;;;;;;22.72;27.42;97686.84;5038093;28;1144;-85
2021/08/17 04:36:07;;;;;;;;;;;;;;;22.51;27.79;97679.88;5071322;28;931;-85
2021/08/17 04:38:33;;;;;;;;;;;;;;;22.49;27.77;97675.94;5055170;28;879;-84
2021/08/17 04:40:58;;;;;;;;;;;;;;;22.62;27.57;97683.13;5071651;28;1975;-85
2021/08/17 04:43:24;;;;;;;;;;;;;;;22.67;27.22;97684.59;5054740;28;1175;-85
2021/08/17 04:45:52;;;;;;;;;;;;;;;22.55;27.63;97685.44;5038422;28;1179;-85
2021/08/17 04:48:17;;;;;;;;;;;;;;;22.70;27.52;97686.53;5072062;28;1072;-85
2021/08/17 04:51:01;;;;;;;;;;;;;;;22.72;27.43;97688.88;5054670;28;953;-85
2021/08/17 04:53:27;;;;;;;;;;;;;;;22.63;27.69;97690.38;5071726;28;641;-85
2021/08/17 04:55:52;;;;;;;;;;;;;;;22.60;27.58;97684.84;5054320;28;1147;-85
2021/08/17 04:58:18;;;;;;;;;;;;;;;22.66;27.72;97688.69;5071856;28;690;-85
2021/08/17 05:00:48;;;;;;;;;;;;;;;22.49;27.87;97690.13;5054768;28;1972;-85
2021/08/17 05:03:13;;;;;;;;;;;;;;;22.57;27.77;97689.38;5054847;28;1184;-85
2021/08/17 05:05:39;;;;;;;;;;;;;;;22.80;27.47;97696.69;5052900;28;1160;-85
2021/08/17 05:08:07;;;;;;;;;;;;;;;22.82;27.55;97699.06;5055235;28;1130;-85
2021/08/17 05:10:33;;;;;;;;;;;;;;;22.63;27.86;97698.09;5071738;28;818;-85
2021/08/17 05:13:00;;;;;;;;;;;;;;;22.54;27.78;97695.22;5054354;28;1194;-85
2021/08/17 05:15:25;;;;;;;;;;;;;;;22.52;28.07;97698.47;5071299;28;610;-85
2021/08/17 05:17:51;;;;;;;;;;;;;;;22.73;27.90;97696.94;5071435;28;1276;-85
2021/08/17 05:20:16;;;;;;;;;;;;;;;22.69;27.64;97701.97;5054886;28;1945;-85
2021/08/17 05:22:42;;;;;;;;;;;;;;;22.65;28.00;97698.44;5054567;28;982;-85
2021/08/17 05:25:07;;;;;;;;;;;;;;;22.80;27.56;97696.69;5054457;28;1298;-85
2021/08/17 05:27:33;;;;;;;;;;;;;;;22.74;27.92;97692.88;5037991;28;1262;-85
2021/08/17 05:29:59;;;;;;;;;;;;;;;22.70;27.93;97695.03;5054009;28;819;-85
2021/08/17 05:32:24;;;;;;;;;;;;;;;22.52;28.00;97692.81;5037942;28;1155;-85
2021/08/17 05:34:50;;;;;;;;;;;;;;;22.62;27.91;97699.34;5038134;28;1156;-85
2021/08/17 05:37:15;;;;;;;;;;;;;;;22.66;28.00;97702.88;5071883;28;829;-85
2021/08/17 05:39:42;;;;;;;;;;;;;;;22.73;27.99;97702.59;5054474;28;1944;-85
2021/08/17 05:42:08;;;;;;;;;;;;;;;22.70;27.86;97695.03;5089226;28;1038;-85
2021/08/17 05:44:35;;;;;;;;;;;;;;;22.53;28.33;97702.09;5038581;28;1140;-85
2021/08/17 05:47:01;;;;;;;;;;;;;;;22.54;28.16;97703.72;5037951;28;1317;-85
2021/08/17 05:49:26;;;;;;;;;;;;;;;22.71;28.00;97710.78;5053806;28;1288;-85
2021/08/17 05:51:51;;;;;;;;;;;;;;;22.79;28.16;97712.09;5037835;28;1303;-85
2021/08/17 05:54:17;;;;;;;;;;;;;;;22.75;27.79;97705.00;5037993;28;1295;-85
2021/08/17 05:56:42;;;;;;;;;;;;;;;22.55;28.31;97706.09;5071159;28;880;-85
2021/08/17 05:59:08;;;;;;;;;;;;;;;22.59;28.15;97709.59;5071542;28;647;-85
2021/08/17 06:01:33;;;;;;;;;;;;;;;22.63;28.12;97703.78;5070751;28;1913;-85
2021/08/17 06:03:59;;;;;;;;;;;;;;;22.73;27.96;97713.94;5054005;28;1130;-85
2021/08/17 06:06:24;;;;;;;;;;;;;;;22.64;28.25;97708.22;5070685;28;945;-85
2021/08/17 06:08:51;;;;;;;;;;;;;;;22.54;28.42;97712.22;5054513;28;1177;-85
2021/08/17 06:11:16;;;;;;;;;;;;;;;22.49;28.46;97704.28;5037991;28;1308;-85
2021/08/17 06:13:42;;;;;;;;;;;;;;;22.48;28.67;97708.34;5054132;28;1279;-85
2021/08/17 06:16:07;;;;;;;;;;;;;;;22.45;28.69;97714.97;5070858;28;1276;-85
2021/08/17 06:18:33;;;;;;;;;;;;;;;22.48;28.65;97714.03;5070492;28;946;-85
2021/08/17 06:20:58;;;;;;;;;;;;;;;22.66;28.40;97719.09;5067136;28;1910;-85
2021/08/17 06:23:24;;;;;;;;;;;;;;;22.90;27.97;97716.63;5067892;28;890;-85
2021/08/17 06:25:49;;;;;;;;;;;;;;;22.83;27.78;97724.13;5053787;28;1276;-85
2021/08/17 06:28:14;;;;;;;;;;;;;;;22.85;28.06;97710.28;5074898;28;742;-85
2021/08/17 06:30:40;;;;;;;;;;;;;;;22.76;28.42;97717.91;5074275;28;974;-85
2021/08/17 06:33:05;;;;;;;;;;;;;;;22.69;28.45;97724.66;5091373;28;895;-84
2021/08/17 06:35:31;;;;;;;;;;;;;;;22.55;28.75;97725.16;5058172;28;1174;-84
2021/08/17 06:37:56;;;;;;;;;;;;;;;22.73;28.27;97725.28;5041781;28;1140;-84
2021/08/17 06:40:22;;;;;;;;;;;;;;;22.74;28.36;97721.22;5057304;28;1980;-85
2021/08/17 06:42:47;;;;;;;;;;;;;;;22.50;28.75;97722.88;5058408;28;1102;-85
2021/08/17 06:45:13;;;;;;;;;;;;;;;22.68;28.41;97711.69;5057188;28;1177;-85
2021/08/17 06:47:51;;;;;;;;;;;;;;;22.80;28.15;97721.44;5056904;28;1175;-85
2021/08/17 06:50:17;;;;;;;;;;;;;;;22.79;28.20;97717.78;5075011;28;1401;-85
2021/08/17 06:52:43;;;;;;;;;;;;;;;22.90;28.20;97716.63;5074159;28;726;-85
2021/08/17 06:55:09;;;;;;;;;;;;;;;22.84;28.25;97711.50;5057985;28;1165;-85
2021/08/17 06:57:34;;;;;;;;;;;;;;;22.56;28.89;97713.34;5037009;28;974;-85
2021/08/17 07:00:00;;;;;;;;;;;;;;;23.07;29.03;97713.16;5073286;28;1967;-87
2021/08/17 07:02:25;;;;;;;;;;;;;;;22.96;29.27;97717.66;5039157;28;1279;-83
2021/08/17 07:04:51;;;;;;;;;;;;;;;22.58;30.19;97707.19;5052814;28;1155;-87
2021/08/17 07:07:16;;;;;;;;;;;;;;;23.12;29.83;97717.44;5058509;28;939;-87
2021/08/17 07:09:41;;;;;;;;;;;;;;;23.07;29.79;97726.56;5043042;28;1253;-87
2021/08/17 07:12:09;;;;;;;;;;;;;;;22.97;29.76;97717.16;5076123;28;607;-87
2021/08/17 07:14:35;;;;;;;;;;;;;;;22.90;29.72;97716.63;5076098;28;897;-87
2021/08/17 07:17:02;;;;;;;;;;;;;;;22.95;29.49;97724.53;5058419;28;1146;-87
2021/08/17 07:19:28;;;;;;;;;;;;;;;22.90;29.42;97727.97;5042513;28;1222;-87
2021/08/17 07:21:55;;;;;;;;;;;;;;;22.88;29.24;97715.03;5058334;28;1986;-87
2021/08/17 07:24:21;;;;;;;;;;;;;;;22.80;29.66;97716.53;5059693;28;1297;-86
2021/08/17 07:26:46;;;;;;;;;;;;;;;22.94;28.98;97722.97;5058544;28;1196;-87
2021/08/17 07:29:13;;;;;;;;;;;;;;;22.92;29.28;97723.44;5058656;28;867;-87
2021/08/17 07:31:38;;;;;;;;;;;;;;;22.90;29.23;97723.13;5058141;28;1156;-87
2021/08/17 07:34:05;;;;;;;;;;;;;;;22.93;29.12;97721.38;5059125;28;1208;-87
2021/08/17 07:36:31;;;;;;;;;;;;;;;22.90;29.10;97722.31;5041874;28;1311;-87
2021/08/17 07:38:56;;;;;;;;;;;;;;;22.90;29.17;97722.31;5074168;28;634;-87
2021/08/17 07:41:22;;;;;;;;;;;;;;;22.86;29.26;97713.91;5040843;28;1887;-86
2021/08/17 07:43:47;;;;;;;;;;;;;;;22.93;28.93;97710.03;5041506;28;1154;-87
2021/08/17 07:46:13;;;;;;;;;;;;;;;22.95;29.02;97714.03;5040430;28;1268;-87
2021/08/17 07:48:38;;;;;;;;;;;;;;;23.04;28.82;97721.78;5041999;28;1314;-87
2021/08/17 07:51:04;;;;;;;;;;;;;;;22.98;28.95;97712.28;5074610;28;746;-87
2021/08/17 07:53:29;;;;;;;;;;;;;;;22.98;28.97;97712.28;5058864;28;1201;-87
2021/08/17 07:55:55;;;;;;;;;;;;;;;22.98;28.90;97706.63;5057551;28;946;-86
2021/08/17 07:58:20;;;;;;;;;;;;;;;22.93;29.05;97721.38;5041195;28;1165;-87
2021/08/17 08:00:45;;;;;;;;;;;;;;;22.98;28.90;97717.97;5057549;28;1918;-86
2021/08/17 08:03:11;;;;;;;;;;;;;;;23.11;28.37;97716.66;5057607;28;1279;-86
2021/08/17 08:05:36;;;;;;;;;;;;;;;22.86;28.87;97706.19;5056949;28;1292;-87
2021/08/17 08:08:02;;;;;;;;;;;;;;;22.60;29.45;97716.06;5057332;28;1118;-86
2021/08/17 08:10:28;;;;;;;;;;;;;;;22.72;29.34;97706.69;5091352;28;797;-86
2021/08/17 08:12:54;;;;;;;;;;;;;;;22.88;29.05;97720.72;5073984;28;995;-86
2021/08/17 08:15:19;;;;;;;;;;;;;;;22.97;28.81;97705.03;5040557;28;1235;-86
2021/08/17 08:17:44;;;;;;;;;;;;;;;22.98;28.54;97706.63;5057608;28;1165;-86
2021/08/17 08:20:11;;;;;;;;;;;;;;;22.90;28.80;97705.28;5057326;28;1947;-86
2021/08/17 08:22:36;;;;;;;;;;;;;;;22.82;29.12;97711.19;5041061;28;1196;-87
2021/08/17 08:25:02;;;;;;;;;;;;;;;23.00;28.87;97709.78;5074547;28;741;-86
2021/08/17 08:27:28;;;;;;;;;;;;;;;23.14;28.42;97709.25;5056821;28;1144;-86
2021/08/17 08:29:53;;;;;;;;;;;;;;;22.96;28.63;97709.91;5057088;28;1135;-86
2021/08/17 08:32:19;;;;;;;;;;;;;;;22.92;28.98;97708.47;5040469;28;1134;-86
2021/08/17 08:34:45;;;;;;;;;;;;;;;22.79;29.04;97706.44;5040795;28;1165;-86
2021/08/17 08:37:10;;;;;;;;;;;;;;;22.79;29.07;97700.75;5040324;28;1131;-84
2021/08/17 08:39:36;;;;;;;;;;;;;;;22.86;29.14;97720.38;5056719;28;1135;-86
2021/08/17 08:42:02;;;;;;;;;;;;;;;22.93;28.79;97710.03;5056037;28;1890;-86
2021/08/17 08:44:29;;;;;;;;;;;;;;;22.86;28.95;97716.75;5074244;28;1042;-86
2021/08/17 08:46:55;;;;;;;;;;;;;;;22.90;29.08;97722.31;5040627;28;1123;-87
2021/08/17 08:49:21;;;;;;;;;;;;;;;23.00;28.87;97710.59;5074141;28;822;-86
2021/08/17 08:51:47;;;;;;;;;;;;;;;22.77;29.05;97711.78;5056281;28;1178;-86
2021/08/17 08:54:13;;;;;;;;;;;;;;;22.76;29.28;97707.38;5057378;28;1124;-86
2021/08/17 08:56:39;;;;;;;;;;;;;;;22.87;28.85;97707.75;5072980;28;928;-87
2021/08/17 08:59:04;;;;;;;;;;;;;;;22.90;29.12;97716.63;5040072;28;1159;-86
2021/08/17 09:01:30;;;;;;;;;;;;;;;22.80;28.96;97718.59;5039530;28;1955;-86
2021/08/17 09:03:58;;;;;;;;;;;;;;;23.05;28.83;97712.00;5055969;28;810;-87
2021/08/17 09:06:25;;;;;;;;;;;;;;;22.95;28.96;97718.88;5039329;28;1172;-86
2021/08/17 09:09:10;;;;;;;;;;;;;;;22.91;29.16;97710.50;5074082;28;778;-86
2021/08/17 09:11:37;;;;;;;;;;;;;;;22.98;29.01;97706.63;5072276;28;946;-86
2021/08/17 09:14:14;;;;;;;;;;;;;;;22.92;28.82;97714.13;5056465;28;1172;-86
2021/08/17 09:16:40;;;;;;;;;;;;;;;22.84;29.20;97717.19;5072729;28;1234;-86
2021/08/17 09:19:07;;;;;;;;;;;;;;;23.01;28.93;97714.22;5073195;28;888;-87
2021/08/17 09:21:34;;;;;;;;;;;;;;;22.99;29.13;97719.53;5089811;28;1906;-86
2021/08/17 09:24:07;;;;;;;;;;;;;;;22.98;29.09;97717.97;5056605;28;1209;-86
2021/08/17 09:26:32;;;;;;;;;;;;;;;23.02;28.63;97724.31;5055802;28;1458;-86
2021/08/17 09:29:00;;;;;;;;;;;;;;;23.05;28.53;97712.00;5056258;28;1148;-86
2021/08/17 09:31:31;;;;;;;;;;;;;;;23.00;28.79;97721.13;5039369;28;1262;-86
2021/08/17 09:33:57;;;;;;;;;;;;;;;22.95;28.85;97714.03;5055939;28;1231;-86
2021/08/17 09:36:22;;;;;;;;;;;;;;;22.94;28.96;97705.94;5071218;28;877;-86
2021/08/17 09:38:48;;;;;;;;;;;;;;;22.98;29.14;97715.13;5055922;28;786;-86
2021/08/17 09:41:17;;;;;;;;;;;;;;;22.98;28.80;97706.63;5071610;28;1878;-86
2021/08/17 09:43:56;;;;;;;;;;;;;;;22.96;28.77;97717.66;5038591;28;1270;-86
2021/08/17 09:46:26;;;;;;;;;;;;;;;22.93;29.11;97710.03;5072112;28;1218;-86
2021/08/17 09:48:52;;;;;;;;;;;;;;;22.99;28.73;97696.84;5056119;28;1272;-86
2021/08/17 09:51:30;;;;;;;;;;;;;;;23.16;28.51;97695.41;5055524;28;1314;-86
2021/08/17 09:54:11;;;;;;;;;;;;;;;23.07;28.81;97704.63;5039931;28;1196;-86
2021/08/17 09:56:37;;;;;;;;;;;;;;;23.04;28.72;97693.41;5038358;28;1143;-86
2021/08/17 09:59:04;;;;;;;;;;;;;;;22.93;29.11;97702.31;5055665;28;891;-86
2021/08/17 10:01:29;;;;;;;;;;;;;;;22.85;29.25;97703.81;5040492;28;1923;-86
2021/08/17 10:03:55;;;;;;;;;;;;;;;22.86;28.90;97700.50;5043361;28;1410;-86
2021/08/17 10:06:20;;;;;;;;;;;;;;;22.88;28.99;97700.88;5042885;28;1313;-86
2021/08/17 10:08:46;;;;;;;;;;;;;;;22.83;29.14;97694.97;5059996;28;1283;-86
2021/08/17 10:11:12;;;;;;;;;;;;;;;22.94;28.98;97700.28;5042459;28;1119;-87
2021/08/17 10:13:38;;;;;;;;;;;;;;;22.85;29.11;97698.94;5055960;28;1455;-86
2021/08/17 10:16:04;;;;;;;;;;;;;;;22.94;28.84;97694.59;5039189;28;1339;-85
2021/08/17 10:18:32;;;;;;;;;;;;;;;22.88;28.94;97691.56;5056986;28;881;-86
2021/08/17 10:20:58;;;;;;;;;;;;;;;22.99;28.86;97691.94;5038533;28;1902;-86
2021/08/17 10:23:24;;;;;;;;;;;;;;;22.79;29.24;97692.25;5056301;28;1271;-86
2021/08/17 10:25:55;;;;;;;;;;;;;;;22.95;29.07;97696.19;5055627;28;1038;-86
2021/08/17 10:28:23;;;;;;;;;;;;;;;22.98;29.09;97696.06;5039261;28;1294;-86
2021/08/17 10:30:49;;;;;;;;;;;;;;;22.88;28.88;97698.03;5055187;28;1159;-86
2021/08/17 10:33:34;;;;;;;;;;;;;;;23.05;28.98;97683.63;5040012;28;1335;-86
2021/08/17 10:36:00;;;;;;;;;;;;;;;22.84;29.27;97685.97;5072052;28;1991;-86
2021/08/17 10:38:25;;;;;;;;;;;;;;;22.95;29.12;97690.50;5040157;28;1303;-86
2021/08/17 10:40:54;;;;;;;;;;;;;;;23.02;28.80;97701.59;5071580;28;1898;-86
2021/08/17 10:43:20;;;;;;;;;;;;;;;22.99;29.12;97694.00;5055634;28;1156;-86
2021/08/17 10:45:55;;;;;;;;;;;;;;;22.96;28.88;97680.75;5055388;28;860;-86
2021/08/17 10:48:40;;;;;;;;;;;;;;;23.03;28.95;97691.84;5039766;28;1283;-86
2021/08/17 10:51:08;;;;;;;;;;;;;;;22.99;28.92;97686.28;5054824;28;1161;-86
2021/08/17 10:53:37;;;;;;;;;;;;;;;23.01;28.82;97683.00;5039678;28;762;-86
2021/08/17 10:56:23;;;;;;;;;;;;;;;23.09;28.71;97684.31;5038430;28;1309;-86
2021/08/17 10:58:56;;;;;;;;;;;;;;;23.00;28.87;97681.41;5055795;28;898;-85
2021/08/17 11:01:31;;;;;;;;;;;;;;;23.09;28.89;97673.75;5055740;28;1891;-86
2021/08/17 11:03:56;;;;;;;;;;;;;;;23.07;28.60;97675.47;5072443;28;1273;-86
2021/08/17 11:06:37;;;;;;;;;;;;;;;22.90;29.03;97680.56;5054478;28;1272;-86
2021/08/17 11:09:03;;;;;;;;;;;;;;;23.01;28.92;97674.50;5073336;28;686;-87
2021/08/17 11:11:29;;;;;;;;;;;;;;;23.14;28.62;97672.34;5054701;28;1258;-87
2021/08/17 11:14:01;;;;;;;;;;;;;;;23.05;29.23;97672.28;5037657;28;1140;-86
2021/08/17 11:16:27;;;;;;;;;;;;;;;23.13;28.84;97668.72;5054618;28;1066;-86
2021/08/17 11:18:56;;;;;;;;;;;;;;;23.19;28.81;97670.97;5039306;28;1199;-86
2021/08/17 11:21:28;;;;;;;;;;;;;;;23.21;28.49;97662.75;5038316;28;1969;-86
2021/08/17 11:24:06;;;;;;;;;;;;;;;22.87;29.06;97662.38;5055325;28;1425;-86
2021/08/17 11:26:31;;;;;;;;;;;;;;;22.91;29.40;97659.44;5071394;28;1130;-86
2021/08/17 11:28:57;;;;;;;;;;;;;;;23.02;28.91;97656.19;5038917;28;1147;-86
2021/08/17 11:31:22;;;;;;;;;;;;;;;22.96;29.22;97655.22;5038116;28;1237;-87
2021/08/17 11:33:48;;;;;;;;;;;;;;;23.04;29.00;97665.03;5055489;28;1139;-86
2021/08/17 11:36:21;;;;;;;;;;;;;;;22.98;29.25;97669.72;5038393;28;1196;-87
2021/08/17 11:38:46;;;;;;;;;;;;;;;23.10;29.02;97660.34;5038468;28;1196;-86
2021/08/17 11:41:27;;;;;;;;;;;;;;;23.06;28.70;97657.66;5021215;28;1956;-87
2021/08/17 11:44:19;;;;;;;;;;;;;;;23.07;28.70;97661.28;5054917;28;903;-86
2021/08/17 11:46:45;;;;;;;;;;;;;;;23.02;28.75;97654.16;5051991;28;1157;-86
2021/08/17 11:49:20;;;;;;;;;;;;;;;23.13;28.84;97648.06;5038300;28;1105;-86
2021/08/17 11:51:46;;;;;;;;;;;;;;;23.28;28.69;97651.94;5071722;28;626;-86
2021/08/17 11:54:13;;;;;;;;;;;;;;;23.12;28.69;97637.97;5055199;28;916;-86
2021/08/17 11:56:39;;;;;;;;;;;;;;;23.10;28.75;97640.47;5054467;28;893;-87
2021/08/17 11:59:04;;;;;;;;;;;;;;;23.07;28.66;97647.88;5038438;28;1135;-86
2021/08/17 12:01:31;;;;;;;;;;;;;;;23.08;28.97;97632.44;5054313;28;1969;-86
2021/08/17 12:04:09;;;;;;;;;;;;;;;23.04;29.05;97630.97;5055002;28;1313;-87
2021/08/17 12:06:34;;;;;;;;;;;;;;;23.03;29.11;97618.06;5037692;28;1262;-87
2021/08/17 12:09:15;;;;;;;;;;;;;;;23.08;28.97;97637.31;5021440;28;1176;-87
2021/08/17 12:11:59;;;;;;;;;;;;;;;23.11;28.97;97625.06;5053748;28;877;-86
2021/08/17 12:14:25;;;;;;;;;;;;;;;22.94;29.29;97632.97;5038307;28;1344;-87
2021/08/17 12:16:54;;;;;;;;;;;;;;;22.93;29.25;97622.09;5037402;28;961;-87
2021/08/17 12:19:21;;;;;;;;;;;;;;;23.12;28.85;97627.41;5055107;28;706;-86
2021/08/17 12:21:47;;;;;;;;;;;;;;;23.05;28.98;97618.38;5037089;28;1956;-86
2021/08/17 12:24:23;;;;;;;;;;;;;;;23.16;28.80;97615.94;5054107;28;1210;-87
2021/08/17 12:26:52;;;;;;;;;;;;;;;22.94;29.31;97615.16;5037024;28;1180;-87
2021/08/17 12:29:23;;;;;;;;;;;;;;;22.96;29.04;97604.16;5038035;28;1237;-86
2021/08/17 12:31:49;;;;;;;;;;;;;;;22.85;29.34;97608.16;5037858;28;1179;-87
2021/08/17 12:34:14;;;;;;;;;;;;;;;22.99;29.22;97600.38;5054358;28;1269;-86
2021/08/17 12:36:40;;;;;;;;;;;;;;;23.00;29.21;97596.28;5053680;28;1199;-84
2021/08/17 12:39:07;;;;;;;;;;;;;;;23.15;28.83;97597.31;5054588;28;833;-87
2021/08/17 12:41:34;;;;;;;;;;;;;;;22.90;29.31;97603.97;5053324;28;1906;-86
2021/08/17 12:44:00;;;;;;;;;;;;;;;23.05;29.10;97592.84;5054535;28;850;-86
2021/08/17 12:46:25;;;;;;;;;;;;;;;22.94;29.26;97592.47;5036784;28;1305;-87
2021/08/17 12:48:51;;;;;;;;;;;;;;;23.05;29.06;97587.16;5054043;28;1185;-86
2021/08/17 12:51:23;;;;;;;;;;;;;;;23.03;28.96;97595.34;5020632;28;1197;-87
2021/08/17 12:53:50;;;;;;;;;;;;;;;23.12;28.83;97586.91;5037878;28;1200;-86
2021/08/17 12:56:15;;;;;;;;;;;;;;;23.04;29.06;97592.03;5037056;28;1155;-87
2021/08/17 12:58:43;;;;;;;;;;;;;;;23.07;29.12;97590.34;5037400;28;1229;-87